Siauliai, Lithuania
Current Conditions -  °F | °C
As of 6:50 AM on Monday 20 Oct 2014 (Local Time) from EYSA Reporting Station
Overcast Overcast  
Wind Chill: 54°   Ceiling: 1100
Heat Index: 54°   Visibility: 6mi
Dew Point: 54°   Wind: 14mph
Humidity: 100%   Direction: 260°W
Pressure: 29.5"   Gusts: NA
Location:  55.93°N, 23.32°E
Report Text: EYSA 200350Z 26012KT 9999 OVC011 12/12 Q0999
Loading
Personal Weather Stations






























Interactive Weather Map
Tropical Storm Tracking
New forecast layout! Learn more

10-Day Weather Forecast

Advertisements
Track Severe Weather on mobile